createdAt,value
2017-08-29T00:00:23.351Z,81.60
2017-08-29T00:02:50.833Z,81.80
2017-08-29T00:05:18.330Z,81.80
2017-08-29T00:07:45.828Z,82.00
2017-08-29T00:10:13.371Z,82.20
2017-08-29T00:12:40.854Z,82.40
2017-08-29T00:15:08.302Z,82.20
2017-08-29T00:17:35.756Z,82.50
2017-08-29T00:20:03.341Z,82.50
2017-08-29T00:22:30.808Z,83.00
2017-08-29T00:24:58.312Z,83.20
2017-08-29T00:27:25.812Z,83.60
2017-08-29T00:29:53.264Z,83.60
2017-08-29T00:32:20.711Z,83.90
2017-08-29T00:34:48.402Z,84.10
2017-08-29T00:37:15.851Z,84.50
2017-08-29T00:39:43.299Z,84.80
2017-08-29T00:42:10.755Z,84.90
2017-08-29T00:44:38.207Z,85.20
2017-08-29T00:47:05.803Z,85.50
2017-08-29T00:49:33.355Z,85.70
2017-08-29T00:52:00.811Z,86.10
2017-08-29T00:54:29.060Z,86.70
2017-08-29T00:56:56.595Z,86.70
2017-08-29T00:59:24.055Z,87.10
2017-08-29T01:01:51.579Z,88.00
2017-08-29T01:04:19.128Z,87.10
2017-08-29T01:06:46.583Z,87.10
2017-08-29T01:09:14.212Z,87.70
2017-08-29T01:11:41.755Z,87.70
2017-08-29T01:14:09.304Z,87.20
2017-08-29T01:16:36.943Z,87.80
2017-08-29T01:19:04.395Z,88.20
2017-08-29T01:21:31.960Z,88.00
2017-08-29T01:23:59.580Z,88.30
2017-08-29T01:26:27.043Z,88.50
2017-08-29T01:28:54.501Z,88.70
2017-08-29T01:31:21.997Z,88.80
2017-08-29T01:33:49.452Z,88.80
2017-08-29T01:36:16.986Z,88.90
2017-08-29T01:38:44.452Z,89.90
2017-08-29T01:41:11.983Z,90.00
2017-08-29T01:43:39.441Z,90.10
2017-08-29T01:46:06.957Z,90.20
2017-08-29T01:48:34.505Z,90.20
2017-08-29T01:51:02.055Z,90.30
2017-08-29T01:53:29.507Z,90.50
2017-08-29T01:55:56.972Z,90.40
2017-08-29T01:58:24.448Z,90.40
2017-08-29T02:00:51.903Z,90.40
2017-08-29T02:03:19.451Z,90.50
2017-08-29T02:05:46.912Z,90.80
2017-08-29T02:08:14.444Z,90.90
2017-08-29T02:10:41.896Z,91.20
2017-08-29T02:13:09.371Z,91.40
2017-08-29T02:15:36.972Z,91.40
2017-08-29T02:18:04.426Z,91.40
2017-08-29T02:20:31.881Z,91.40
2017-08-29T02:22:59.595Z,91.50
2017-08-29T02:25:27.141Z,91.70
2017-08-29T02:27:54.592Z,91.70
2017-08-29T02:30:22.227Z,91.70
2017-08-29T02:32:49.687Z,91.90
2017-08-29T02:35:17.207Z,92.00
2017-08-29T02:37:44.881Z,92.00
2017-08-29T02:40:12.407Z,92.10
2017-08-29T02:42:39.948Z,92.20
2017-08-29T02:45:08.229Z,92.50
2017-08-29T02:47:35.749Z,92.50
2017-08-29T02:50:03.208Z,92.40
2017-08-29T02:52:30.700Z,92.60
2017-08-29T02:54:58.180Z,92.30
2017-08-29T02:57:25.641Z,92.40
2017-08-29T02:59:53.364Z,92.60
2017-08-29T03:02:20.832Z,92.30
2017-08-29T03:04:48.287Z,92.90
2017-08-29T03:07:15.780Z,92.40
2017-08-29T03:09:43.239Z,92.30
2017-08-29T03:12:10.691Z,92.40
2017-08-29T03:14:38.188Z,92.80
2017-08-29T03:17:05.759Z,92.70
2017-08-29T03:19:33.220Z,92.80
2017-08-29T03:22:00.708Z,92.70
2017-08-29T03:24:28.165Z,92.70
2017-08-29T03:26:55.633Z,92.90
2017-08-29T03:29:23.172Z,92.80
2017-08-29T03:31:50.636Z,92.70
2017-08-29T03:34:18.319Z,93.00
2017-08-29T03:36:45.800Z,92.70
2017-08-29T03:39:13.348Z,92.70
2017-08-29T03:41:40.831Z,92.70
2017-08-29T03:44:08.332Z,92.80
2017-08-29T03:46:35.873Z,92.70
2017-08-29T03:49:03.368Z,92.70
2017-08-29T03:51:30.864Z,93.10
2017-08-29T03:53:58.406Z,93.00
2017-08-29T03:56:26.767Z,93.30
2017-08-29T03:58:54.308Z,93.30
2017-08-29T04:01:21.849Z,93.30
2017-08-29T04:03:49.493Z,93.40
2017-08-29T04:06:17.036Z,93.30
2017-08-29T04:08:44.500Z,93.40
2017-08-29T04:11:12.023Z,93.40
2017-08-29T04:13:39.489Z,93.30
2017-08-29T04:16:07.936Z,93.70
2017-08-29T04:18:35.477Z,93.70
2017-08-29T04:21:03.016Z,94.00
2017-08-29T04:23:30.759Z,93.80
2017-08-29T04:25:58.308Z,94.30
2017-08-29T04:28:26.535Z,94.00
2017-08-29T04:30:54.112Z,94.00
2017-08-29T04:33:21.580Z,94.30
2017-08-29T04:35:49.105Z,94.30
2017-08-29T04:38:16.741Z,94.50
2017-08-29T04:40:44.204Z,94.60
2017-08-29T04:43:11.824Z,94.40
2017-08-29T04:45:39.480Z,94.30
2017-08-29T04:48:07.020Z,94.30
2017-08-29T04:50:34.479Z,94.40
2017-08-29T04:53:02.255Z,94.60
2017-08-29T04:55:29.717Z,94.60
2017-08-29T04:57:57.175Z,94.50
2017-08-29T05:00:24.844Z,94.60
2017-08-29T05:02:52.304Z,94.60
2017-08-29T05:05:19.824Z,94.80
2017-08-29T05:07:47.375Z,94.80
2017-08-29T05:10:14.923Z,94.90
2017-08-29T05:12:42.382Z,94.70
2017-08-29T05:15:09.843Z,94.70
2017-08-29T05:17:37.439Z,94.80
2017-08-29T05:20:04.984Z,94.70
2017-08-29T05:22:32.532Z,94.60
2017-08-29T05:25:00.071Z,94.50
2017-08-29T05:27:27.612Z,94.40
2017-08-29T05:29:55.151Z,94.20
2017-08-29T05:32:22.621Z,95.30
2017-08-29T05:34:50.111Z,94.80
2017-08-29T05:37:17.601Z,95.10
2017-08-29T05:39:45.060Z,95.10
2017-08-29T05:42:12.563Z,94.90
2017-08-29T05:44:40.115Z,94.70
2017-08-29T05:47:08.368Z,95.00
2017-08-29T05:49:35.920Z,94.60
2017-08-29T05:52:03.460Z,94.60
2017-08-29T05:54:31.001Z,94.50
2017-08-29T05:56:58.556Z,94.30
2017-08-29T05:59:26.012Z,94.80
2017-08-29T06:01:53.532Z,94.70
2017-08-29T06:04:21.008Z,94.50
2017-08-29T06:06:48.465Z,94.40
2017-08-29T06:09:15.972Z,94.50
2017-08-29T06:11:43.506Z,94.30
2017-08-29T06:14:11.043Z,94.50
2017-08-29T06:16:38.504Z,94.70
2017-08-29T06:19:06.240Z,94.30
2017-08-29T06:21:33.691Z,94.40
2017-08-29T06:24:01.219Z,94.40
2017-08-29T06:26:28.756Z,94.20
2017-08-29T06:28:56.214Z,94.70
2017-08-29T06:31:24.431Z,93.80
2017-08-29T06:33:52.000Z,93.80
2017-08-29T06:36:19.460Z,93.80
2017-08-29T06:38:46.992Z,93.90
2017-08-29T06:41:14.643Z,93.70
2017-08-29T06:43:42.095Z,93.50
2017-08-29T06:46:09.652Z,93.20
2017-08-29T06:48:37.115Z,93.30
2017-08-29T06:51:04.643Z,93.10
2017-08-29T06:53:32.180Z,93.00
2017-08-29T06:55:59.719Z,93.30
2017-08-29T06:58:27.180Z,92.90
2017-08-29T07:00:55.627Z,93.00
2017-08-29T07:03:23.167Z,92.90
2017-08-29T07:05:50.650Z,92.90
2017-08-29T07:08:18.113Z,92.90
2017-08-29T07:10:45.596Z,92.90
2017-08-29T07:13:13.236Z,92.70
2017-08-29T07:15:40.691Z,92.20
2017-08-29T07:18:08.228Z,92.40
2017-08-29T07:20:35.871Z,92.60
2017-08-29T07:23:03.332Z,92.30
2017-08-29T07:25:30.784Z,92.30
2017-08-29T07:27:58.280Z,92.10
2017-08-29T07:30:25.739Z,92.00
2017-08-29T07:32:53.280Z,91.90
2017-08-29T07:35:20.828Z,91.80
2017-08-29T07:37:48.300Z,91.90
2017-08-29T07:40:15.751Z,91.70
2017-08-29T07:42:43.211Z,91.70
2017-08-29T07:45:10.772Z,91.80
2017-08-29T07:47:38.413Z,92.30
2017-08-29T07:50:05.956Z,91.80
2017-08-29T07:52:33.423Z,91.40
2017-08-29T07:55:00.892Z,91.40
2017-08-29T07:57:28.388Z,91.50
2017-08-29T07:59:55.936Z,91.60
2017-08-29T08:02:23.436Z,91.70
2017-08-29T08:04:50.887Z,91.80
2017-08-29T08:07:18.344Z,91.30
2017-08-29T08:09:45.901Z,91.20
2017-08-29T08:12:13.357Z,90.60
2017-08-29T08:14:40.822Z,90.50
2017-08-29T08:17:08.336Z,91.00
2017-08-29T08:19:35.784Z,90.20
2017-08-29T08:22:03.407Z,90.70
2017-08-29T08:24:30.869Z,90.20
2017-08-29T08:26:58.327Z,90.70
2017-08-29T08:29:25.807Z,90.60
2017-08-29T08:31:53.284Z,90.20
2017-08-29T08:34:20.740Z,89.90
2017-08-29T08:36:48.472Z,90.00
2017-08-29T08:39:16.012Z,90.10
2017-08-29T08:41:43.556Z,90.00
2017-08-29T08:44:11.059Z,89.30
2017-08-29T08:46:38.575Z,88.50
2017-08-29T08:49:06.036Z,87.50
2017-08-29T08:51:33.569Z,88.80
2017-08-29T08:54:01.108Z,87.10
2017-08-29T08:56:28.576Z,87.90
2017-08-29T08:58:56.300Z,87.50
2017-08-29T09:01:23.839Z,86.20
2017-08-29T09:03:51.299Z,87.10
2017-08-29T09:06:18.827Z,87.20
2017-08-29T09:08:46.568Z,86.50
2017-08-29T09:11:14.120Z,84.80
2017-08-29T09:13:41.586Z,86.60
2017-08-29T09:16:09.044Z,84.50
2017-08-29T09:18:36.508Z,84.10
2017-08-29T09:21:03.969Z,84.00
2017-08-29T09:23:31.523Z,84.20
2017-08-29T09:25:59.071Z,83.90
2017-08-29T09:28:26.617Z,83.40
2017-08-29T09:30:54.159Z,84.30
2017-08-29T09:33:21.704Z,83.90
2017-08-29T09:35:49.248Z,83.00
2017-08-29T09:38:16.891Z,83.50
2017-08-29T09:40:44.441Z,83.60
2017-08-29T09:43:11.893Z,84.70
2017-08-29T09:45:39.423Z,80.60
2017-08-29T09:48:06.967Z,80.30
2017-08-29T09:50:34.436Z,81.10
2017-08-29T09:53:02.076Z,81.20
2017-08-29T09:55:29.527Z,80.50
2017-08-29T09:57:57.144Z,80.10
2017-08-29T10:00:24.693Z,78.70
2017-08-29T10:02:52.228Z,79.20
2017-08-29T10:05:19.771Z,79.30
2017-08-29T10:07:47.248Z,79.10
2017-08-29T10:10:14.756Z,78.10
2017-08-29T10:12:42.219Z,78.40
2017-08-29T10:15:10.663Z,75.40
2017-08-29T10:17:38.207Z,75.40
2017-08-29T10:20:05.756Z,75.10
2017-08-29T10:22:33.300Z,73.80
2017-08-29T10:25:00.759Z,71.70
2017-08-29T10:27:28.275Z,69.60
2017-08-29T10:29:55.732Z,71.10
2017-08-29T10:32:23.192Z,67.50
2017-08-29T10:34:50.699Z,68.30
2017-08-29T10:37:18.164Z,71.00
2017-08-29T10:39:45.628Z,68.10
2017-08-29T10:42:13.128Z,67.10
2017-08-29T10:44:41.524Z,66.90
2017-08-29T10:47:08.976Z,66.40
2017-08-29T10:49:36.436Z,66.00
2017-08-29T10:52:03.891Z,64.80
2017-08-29T10:54:31.548Z,64.10
2017-08-29T10:56:59.090Z,62.10
2017-08-29T10:59:26.637Z,63.70
2017-08-29T11:01:54.284Z,60.60
2017-08-29T11:04:21.823Z,60.20
2017-08-29T11:06:49.292Z,60.70
2017-08-29T11:09:16.753Z,57.80
2017-08-29T11:11:44.253Z,56.50
2017-08-29T11:14:11.728Z,57.30
2017-08-29T11:16:39.184Z,56.80
2017-08-29T11:19:06.639Z,56.10
2017-08-29T11:21:34.418Z,54.50
2017-08-29T11:24:01.878Z,54.30
2017-08-29T11:26:30.099Z,52.10
2017-08-29T11:28:57.775Z,52.00
2017-08-29T11:31:25.228Z,48.60
2017-08-29T11:33:52.689Z,48.00
2017-08-29T11:36:20.191Z,46.20
2017-08-29T11:38:47.643Z,44.10
2017-08-29T11:41:15.100Z,42.50
2017-08-29T11:43:42.584Z,41.80
2017-08-29T11:46:10.045Z,40.60
2017-08-29T11:48:37.509Z,40.20
2017-08-29T11:51:05.006Z,39.40
2017-08-29T11:53:32.456Z,37.70
2017-08-29T11:55:59.911Z,38.00
2017-08-29T11:58:27.576Z,37.30
2017-08-29T12:00:55.032Z,36.70
2017-08-29T12:03:22.510Z,35.50
2017-08-29T12:05:50.020Z,34.30
2017-08-29T12:08:17.482Z,33.30
2017-08-29T12:10:44.936Z,32.40
2017-08-29T12:13:12.631Z,32.40
2017-08-29T12:15:40.100Z,32.10
2017-08-29T12:18:07.557Z,31.30
2017-08-29T12:20:35.053Z,31.00
2017-08-29T12:23:02.642Z,31.00
2017-08-29T12:25:30.091Z,29.90
2017-08-29T12:27:57.576Z,28.90
2017-08-29T12:30:25.120Z,30.00
2017-08-29T12:32:52.672Z,30.10
2017-08-29T12:35:20.323Z,29.40
2017-08-29T12:37:47.780Z,29.70
2017-08-29T12:40:15.308Z,29.50
2017-08-29T12:42:43.055Z,28.10
2017-08-29T12:45:10.500Z,28.80
2017-08-29T12:47:37.955Z,28.50
2017-08-29T12:50:05.535Z,26.90
2017-08-29T12:52:32.981Z,26.60
2017-08-29T12:55:00.503Z,26.50
2017-08-29T12:57:28.004Z,25.60
2017-08-29T12:59:55.452Z,25.70
2017-08-29T13:02:22.911Z,25.80
2017-08-29T13:04:50.401Z,25.80
2017-08-29T13:07:17.855Z,25.40
2017-08-29T13:09:45.353Z,25.90
2017-08-29T13:12:12.851Z,25.90
2017-08-29T13:14:40.305Z,25.90
2017-08-29T13:17:07.767Z,25.60
2017-08-29T13:19:35.244Z,26.20
2017-08-29T13:22:02.727Z,25.60
2017-08-29T13:24:30.175Z,26.10
2017-08-29T13:26:57.849Z,26.30
2017-08-29T13:29:25.396Z,26.20
2017-08-29T13:31:52.949Z,26.90
2017-08-29T13:34:20.581Z,26.00
2017-08-29T13:36:48.128Z,26.60
2017-08-29T13:39:15.672Z,26.30
2017-08-29T13:41:43.140Z,26.00
2017-08-29T13:44:10.655Z,25.70
2017-08-29T13:46:38.236Z,24.20
2017-08-29T13:49:05.777Z,23.90
2017-08-29T13:51:33.239Z,24.10
2017-08-29T13:54:00.970Z,22.50
2017-08-29T13:56:28.530Z,22.20
2017-08-29T13:58:55.977Z,22.90
2017-08-29T14:01:23.604Z,22.40
2017-08-29T14:03:51.060Z,21.70
2017-08-29T14:06:18.528Z,21.90
2017-08-29T14:08:45.988Z,22.90
2017-08-29T14:11:13.465Z,23.30
2017-08-29T14:13:41.016Z,23.80
2017-08-29T14:16:08.556Z,23.50
2017-08-29T14:18:36.104Z,23.30
2017-08-29T14:21:04.459Z,24.10
2017-08-29T14:23:32.005Z,24.20
2017-08-29T14:25:59.543Z,23.80
2017-08-29T14:28:27.280Z,22.80
2017-08-29T14:30:54.836Z,23.40
2017-08-29T14:33:22.292Z,22.70
2017-08-29T14:35:49.820Z,23.10
2017-08-29T14:38:17.360Z,21.30
2017-08-29T14:40:44.908Z,21.60
2017-08-29T14:43:12.378Z,21.30
2017-08-29T14:45:39.893Z,21.00
2017-08-29T14:48:19.218Z,21.70
2017-08-29T14:50:46.753Z,21.20
2017-08-29T14:53:14.298Z,22.00
2017-08-29T14:55:41.952Z,21.60
2017-08-29T14:58:09.403Z,21.70
2017-08-29T15:00:36.859Z,21.90
2017-08-29T15:03:04.531Z,21.90
2017-08-29T15:05:32.017Z,21.40
2017-08-29T15:07:59.558Z,21.20
2017-08-29T15:10:27.024Z,21.30
2017-08-29T15:12:54.536Z,21.80
2017-08-29T15:15:22.085Z,21.50
2017-08-29T15:17:49.548Z,20.60
2017-08-29T15:20:17.068Z,19.60
2017-08-29T15:22:44.616Z,20.10
2017-08-29T15:25:12.164Z,19.90
2017-08-29T15:27:39.614Z,19.70
2017-08-29T15:30:07.080Z,19.80
2017-08-29T15:32:34.605Z,20.20
2017-08-29T15:35:02.136Z,20.10
2017-08-29T15:37:29.673Z,20.60
2017-08-29T15:39:57.272Z,20.60
2017-08-29T15:42:24.764Z,20.70
2017-08-29T15:44:52.308Z,21.10
2017-08-29T15:47:19.847Z,21.40
2017-08-29T15:49:47.299Z,21.10
2017-08-29T15:52:14.755Z,21.60
2017-08-29T15:54:42.272Z,21.30
2017-08-29T15:57:09.724Z,21.50
2017-08-29T15:59:37.179Z,21.70
2017-08-29T16:02:04.641Z,20.90
2017-08-29T16:04:32.100Z,20.90
2017-08-29T16:06:59.727Z,20.80
2017-08-29T16:09:27.187Z,21.00
2017-08-29T16:11:54.663Z,21.00
2017-08-29T16:14:22.208Z,21.70
2017-08-29T16:16:49.751Z,21.10
2017-08-29T16:19:17.399Z,22.40
2017-08-29T16:21:44.864Z,21.30
2017-08-29T16:24:12.316Z,22.50
2017-08-29T16:26:39.826Z,21.40
2017-08-29T16:29:07.381Z,21.90
2017-08-29T16:31:34.856Z,21.70
2017-08-29T16:34:02.370Z,21.50
2017-08-29T16:36:30.612Z,21.90
2017-08-29T16:38:58.155Z,21.80
2017-08-29T16:41:25.637Z,23.00
2017-08-29T16:43:53.096Z,23.40
2017-08-29T16:46:20.556Z,22.40
2017-08-29T16:48:48.016Z,23.60
2017-08-29T16:51:15.560Z,22.50
2017-08-29T16:53:43.215Z,22.70
2017-08-29T16:56:10.751Z,23.70
2017-08-29T16:58:38.212Z,24.00
2017-08-29T17:01:06.460Z,24.10
2017-08-29T17:03:33.999Z,24.00
2017-08-29T17:06:01.452Z,24.10
2017-08-29T17:08:28.952Z,24.40
2017-08-29T17:10:56.428Z,24.60
2017-08-29T17:13:23.971Z,26.80
2017-08-29T17:15:51.440Z,27.20
2017-08-29T17:18:18.956Z,26.50
2017-08-29T17:20:46.420Z,27.90
2017-08-29T17:23:14.136Z,28.50
2017-08-29T17:25:41.588Z,28.70
2017-08-29T17:28:09.135Z,29.20
2017-08-29T17:30:36.672Z,30.30
2017-08-29T17:33:04.129Z,30.90
2017-08-29T17:35:31.761Z,32.90
2017-08-29T17:37:59.212Z,33.80
2017-08-29T17:40:26.748Z,35.40
2017-08-29T17:42:54.279Z,36.50
2017-08-29T17:45:21.740Z,38.30
2017-08-29T17:47:49.272Z,38.50
2017-08-29T17:50:16.816Z,39.90
2017-08-29T17:52:44.363Z,40.50
2017-08-29T17:55:11.815Z,42.00
2017-08-29T17:57:39.344Z,42.70
2017-08-29T18:00:06.891Z,43.90
2017-08-29T18:02:34.535Z,45.70
2017-08-29T18:05:02.079Z,45.70
2017-08-29T18:07:29.627Z,45.60
2017-08-29T18:09:57.107Z,46.80
2017-08-29T18:12:24.565Z,47.80
2017-08-29T18:14:52.053Z,48.30
2017-08-29T18:17:19.796Z,48.70
2017-08-29T18:19:47.339Z,49.30
2017-08-29T18:22:14.800Z,50.30
2017-08-29T18:24:42.419Z,51.10
2017-08-29T18:27:09.963Z,51.20
2017-08-29T18:29:37.508Z,52.20
2017-08-29T18:32:05.265Z,52.90
2017-08-29T18:34:32.800Z,53.10
2017-08-29T18:37:00.349Z,54.10
2017-08-29T18:39:27.811Z,54.50
2017-08-29T18:41:55.271Z,54.90
2017-08-29T18:44:22.872Z,55.60
2017-08-29T18:46:50.332Z,56.00
2017-08-29T18:49:17.855Z,56.80
2017-08-29T18:51:45.500Z,55.80
2017-08-29T18:54:13.155Z,56.40
2017-08-29T18:56:40.695Z,57.20
2017-08-29T18:59:08.345Z,57.60
2017-08-29T19:01:35.887Z,57.50
2017-08-29T19:04:03.355Z,58.00
2017-08-29T19:06:30.872Z,58.40
2017-08-29T19:08:58.412Z,58.80
2017-08-29T19:11:25.864Z,59.50
2017-08-29T19:13:53.396Z,60.10
2017-08-29T19:16:20.852Z,60.50
2017-08-29T19:18:48.484Z,61.10
2017-08-29T19:21:15.940Z,59.70
2017-08-29T19:23:43.464Z,61.20
2017-08-29T19:26:11.011Z,61.20
2017-08-29T19:28:38.564Z,62.00
2017-08-29T19:31:06.100Z,62.30
2017-08-29T19:33:34.568Z,63.10
2017-08-29T19:36:02.024Z,63.20
2017-08-29T19:38:29.480Z,64.70
2017-08-29T19:40:56.992Z,64.40
2017-08-29T19:43:24.543Z,64.90
2017-08-29T19:45:52.081Z,65.70
2017-08-29T19:48:19.620Z,66.20
2017-08-29T19:50:47.088Z,67.90
2017-08-29T19:53:14.550Z,67.10
2017-08-29T19:55:42.044Z,67.50
2017-08-29T19:58:09.591Z,67.60
2017-08-29T20:00:37.047Z,68.10
2017-08-29T20:03:05.397Z,68.60
2017-08-29T20:05:32.936Z,68.50
2017-08-29T20:08:00.480Z,68.40
2017-08-29T20:10:28.101Z,69.10
2017-08-29T20:12:55.552Z,69.30
2017-08-29T20:15:23.007Z,69.40
2017-08-29T20:17:50.537Z,69.60
2017-08-29T20:20:18.100Z,70.10
2017-08-29T20:22:45.642Z,70.10
2017-08-29T20:25:13.196Z,70.30
2017-08-29T20:27:40.648Z,70.50
2017-08-29T20:30:08.264Z,71.10
2017-08-29T20:32:35.812Z,71.50
2017-08-29T20:35:03.280Z,71.80
2017-08-29T20:37:30.796Z,72.10
2017-08-29T20:39:58.345Z,72.50
2017-08-29T20:42:25.883Z,73.00
2017-08-29T20:44:53.640Z,73.20
2017-08-29T20:47:21.161Z,73.60
2017-08-29T20:49:48.627Z,73.80
2017-08-29T20:52:16.299Z,74.20
2017-08-29T20:54:43.836Z,74.80
2017-08-29T20:57:11.304Z,75.20
2017-08-29T20:59:38.996Z,75.60
2017-08-29T21:02:06.462Z,76.20
2017-08-29T21:04:33.988Z,76.20
2017-08-29T21:07:01.516Z,76.80
2017-08-29T21:09:29.087Z,77.10
2017-08-29T21:11:56.544Z,77.20
2017-08-29T21:14:24.816Z,77.70
2017-08-29T21:16:52.281Z,77.70
2017-08-29T21:19:19.765Z,77.70
2017-08-29T21:21:48.032Z,78.20
2017-08-29T21:24:15.483Z,78.10
2017-08-29T21:26:42.949Z,78.30
2017-08-29T21:29:10.636Z,78.80
2017-08-29T21:31:38.087Z,79.00
2017-08-29T21:34:05.632Z,79.40
2017-08-29T21:36:33.172Z,79.90
2017-08-29T21:39:00.636Z,80.80
2017-08-29T21:41:28.088Z,80.60
2017-08-29T21:43:55.595Z,80.80
2017-08-29T21:46:23.052Z,80.80
2017-08-29T21:48:50.544Z,81.80
2017-08-29T21:51:18.008Z,81.30
2017-08-29T21:53:45.568Z,81.40
2017-08-29T21:56:13.108Z,81.60
2017-08-29T21:58:40.567Z,82.30
2017-08-29T22:01:08.025Z,81.80
2017-08-29T22:03:35.536Z,81.40
2017-08-29T22:06:03.137Z,81.20
2017-08-29T22:08:30.624Z,80.70
2017-08-29T22:10:58.088Z,80.20
2017-08-29T22:13:25.608Z,80.40
2017-08-29T22:15:53.083Z,79.50
2017-08-29T22:18:20.539Z,79.60
2017-08-29T22:20:47.991Z,79.40
2017-08-29T22:23:15.576Z,78.70
2017-08-29T22:25:43.139Z,79.20
2017-08-29T22:28:10.595Z,80.00
2017-08-29T22:30:38.203Z,79.50
2017-08-29T22:33:05.660Z,78.70
2017-08-29T22:35:33.208Z,79.30
2017-08-29T22:38:00.740Z,78.80
2017-08-29T22:40:28.199Z,78.60
2017-08-29T22:42:55.720Z,79.00
2017-08-29T22:45:23.267Z,79.70
2017-08-29T22:47:50.724Z,80.40
2017-08-29T22:50:18.247Z,81.60
2017-08-29T22:52:45.787Z,80.40
2017-08-29T22:55:13.247Z,81.00
2017-08-29T22:57:40.712Z,79.90
2017-08-29T23:00:08.579Z,79.40
2017-08-29T23:02:36.276Z,80.20
2017-08-29T23:05:03.733Z,80.60
2017-08-29T23:07:31.193Z,80.70
2017-08-29T23:09:58.903Z,81.10
2017-08-29T23:12:26.360Z,80.90
2017-08-29T23:14:53.821Z,81.40
2017-08-29T23:17:21.307Z,81.30
2017-08-29T23:19:48.869Z,81.00
2017-08-29T23:22:16.332Z,80.70
2017-08-29T23:24:43.860Z,80.90
2017-08-29T23:27:11.500Z,80.70
2017-08-29T23:29:39.040Z,80.90
2017-08-29T23:32:06.495Z,81.20
2017-08-29T23:34:34.236Z,81.00
2017-08-29T23:37:01.696Z,81.00
2017-08-29T23:39:29.220Z,81.00
2017-08-29T23:41:56.700Z,81.30
2017-08-29T23:44:24.160Z,80.90
2017-08-29T23:46:51.652Z,81.00
2017-08-29T23:49:19.193Z,81.20
2017-08-29T23:51:46.731Z,81.20
2017-08-29T23:54:14.275Z,81.30
2017-08-29T23:56:41.816Z,81.30
2017-08-29T23:59:09.331Z,82.50
